< < Back
Terminal Aerodrome Forecast


Current Version              Previous Versions:   1  2  3  4  5  6  7  8  9  

Terminal Aerodrome Forecast

279
FTUS42 KCHS 130531
TAFSAV
TAF
KSAV 130531Z 1306/1406 33007KT P6SM SKC
     FM131400 33010G16KT P6SM SKC
     FM132200 02006KT P6SM SKC=

Latest METAR

780
SAUS80 KWBC 130800 RRA
MTRSAV
METAR KSAV 130753Z AUTO 31005KT 10SM CLR 07/03 A3013 RMK AO2 SLP200
T00720033 TSNO $


USA.gov is the U.S. government's official web portal to all federal, state and local government web resources and services.